sensor_id;sensor_type;location;lat;lon;timestamp;P1;durP1;ratioP1;P2;durP2;ratioP2
17201;SDS011;8717;53.588;10.176;2022-08-19T00:00:44;16.57;;;13.70;;
17201;SDS011;8717;53.588;10.176;2022-08-19T00:03:12;18.25;;;13.50;;
17201;SDS011;8717;53.588;10.176;2022-08-19T00:05:38;15.43;;;13.70;;
17201;SDS011;8717;53.588;10.176;2022-08-19T00:08:07;18.90;;;13.20;;
17201;SDS011;8717;53.588;10.176;2022-08-19T00:10:34;14.90;;;12.73;;
17201;SDS011;8717;53.588;10.176;2022-08-19T00:13:00;17.43;;;14.00;;
17201;SDS011;8717;53.588;10.176;2022-08-19T00:15:27;18.33;;;14.70;;
17201;SDS011;8717;53.588;10.176;2022-08-19T00:17:54;17.33;;;14.17;;
17201;SDS011;8717;53.588;10.176;2022-08-19T00:20:22;17.57;;;14.67;;
17201;SDS011;8717;53.588;10.176;2022-08-19T00:22:49;17.97;;;13.87;;
17201;SDS011;8717;53.588;10.176;2022-08-19T00:25:16;20.33;;;15.37;;
17201;SDS011;8717;53.588;10.176;2022-08-19T00:27:43;21.23;;;16.07;;
17201;SDS011;8717;53.588;10.176;2022-08-19T00:30:10;18.80;;;15.40;;
17201;SDS011;8717;53.588;10.176;2022-08-19T00:32:38;24.60;;;18.50;;
17201;SDS011;8717;53.588;10.176;2022-08-19T00:35:05;25.83;;;19.63;;
17201;SDS011;8717;53.588;10.176;2022-08-19T00:37:34;23.70;;;18.23;;
17201;SDS011;8717;53.588;10.176;2022-08-19T00:40:02;27.53;;;19.97;;
17201;SDS011;8717;53.588;10.176;2022-08-19T00:42:30;24.57;;;18.37;;
17201;SDS011;8717;53.588;10.176;2022-08-19T00:44:57;23.27;;;18.40;;
17201;SDS011;8717;53.588;10.176;2022-08-19T00:47:24;22.73;;;18.20;;
17201;SDS011;8717;53.588;10.176;2022-08-19T00:49:52;27.10;;;19.10;;
17201;SDS011;8717;53.588;10.176;2022-08-19T00:52:23;23.93;;;18.57;;
17201;SDS011;8717;53.588;10.176;2022-08-19T00:54:53;23.70;;;18.27;;
17201;SDS011;8717;53.588;10.176;2022-08-19T00:57:22;27.00;;;20.37;;
17201;SDS011;8717;53.588;10.176;2022-08-19T00:59:54;27.40;;;18.80;;
17201;SDS011;8717;53.588;10.176;2022-08-19T01:02:23;27.43;;;18.87;;
17201;SDS011;8717;53.588;10.176;2022-08-19T01:04:51;26.73;;;17.97;;
17201;SDS011;8717;53.588;10.176;2022-08-19T01:07:17;29.20;;;19.83;;
17201;SDS011;8717;53.588;10.176;2022-08-19T01:09:44;26.73;;;18.30;;
17201;SDS011;8717;53.588;10.176;2022-08-19T01:12:12;22.83;;;18.40;;
17201;SDS011;8717;53.588;10.176;2022-08-19T01:14:39;25.85;;;18.48;;
17201;SDS011;8717;53.588;10.176;2022-08-19T01:17:07;27.50;;;17.87;;
17201;SDS011;8717;53.588;10.176;2022-08-19T01:19:35;23.53;;;18.67;;
17201;SDS011;8717;53.588;10.176;2022-08-19T01:22:06;24.77;;;18.07;;
17201;SDS011;8717;53.588;10.176;2022-08-19T01:24:38;23.87;;;17.17;;
17201;SDS011;8717;53.588;10.176;2022-08-19T01:27:05;25.27;;;18.83;;
17201;SDS011;8717;53.588;10.176;2022-08-19T01:29:32;24.53;;;17.67;;
17201;SDS011;8717;53.588;10.176;2022-08-19T01:32:00;29.10;;;19.50;;
17201;SDS011;8717;53.588;10.176;2022-08-19T01:34:27;25.80;;;18.80;;
17201;SDS011;8717;53.588;10.176;2022-08-19T01:36:54;26.70;;;19.43;;
17201;SDS011;8717;53.588;10.176;2022-08-19T01:39:22;28.60;;;19.30;;
17201;SDS011;8717;53.588;10.176;2022-08-19T01:41:51;28.02;;;19.23;;
17201;SDS011;8717;53.588;10.176;2022-08-19T01:44:19;24.73;;;19.10;;
17201;SDS011;8717;53.588;10.176;2022-08-19T01:46:49;27.90;;;20.53;;
17201;SDS011;8717;53.588;10.176;2022-08-19T01:49:17;28.50;;;19.77;;
17201;SDS011;8717;53.588;10.176;2022-08-19T01:51:47;26.07;;;18.50;;
17201;SDS011;8717;53.588;10.176;2022-08-19T01:54:16;26.30;;;19.37;;
17201;SDS011;8717;53.588;10.176;2022-08-19T01:56:47;26.87;;;19.03;;
17201;SDS011;8717;53.588;10.176;2022-08-19T01:59:16;26.13;;;19.27;;
17201;SDS011;8717;53.588;10.176;2022-08-19T02:01:45;27.63;;;19.23;;
17201;SDS011;8717;53.588;10.176;2022-08-19T02:04:12;29.23;;;17.90;;
17201;SDS011;8717;53.588;10.176;2022-08-19T02:06:39;26.43;;;19.37;;
17201;SDS011;8717;53.588;10.176;2022-08-19T02:09:06;27.37;;;18.87;;
17201;SDS011;8717;53.588;10.176;2022-08-19T02:11:34;30.83;;;19.97;;
17201;SDS011;8717;53.588;10.176;2022-08-19T02:14:03;23.30;;;18.23;;
17201;SDS011;8717;53.588;10.176;2022-08-19T02:16:35;27.37;;;19.80;;
17201;SDS011;8717;53.588;10.176;2022-08-19T02:19:03;27.20;;;20.17;;
17201;SDS011;8717;53.588;10.176;2022-08-19T02:21:30;27.50;;;19.80;;
17201;SDS011;8717;53.588;10.176;2022-08-19T02:23:58;29.40;;;19.27;;
17201;SDS011;8717;53.588;10.176;2022-08-19T02:26:25;29.07;;;22.17;;
17201;SDS011;8717;53.588;10.176;2022-08-19T02:28:52;27.83;;;20.73;;
17201;SDS011;8717;53.588;10.176;2022-08-19T02:31:21;28.13;;;19.77;;
17201;SDS011;8717;53.588;10.176;2022-08-19T02:33:50;28.00;;;19.43;;
17201;SDS011;8717;53.588;10.176;2022-08-19T02:36:17;26.97;;;20.00;;
17201;SDS011;8717;53.588;10.176;2022-08-19T02:38:44;26.63;;;18.73;;
17201;SDS011;8717;53.588;10.176;2022-08-19T02:41:12;28.87;;;19.57;;
17201;SDS011;8717;53.588;10.176;2022-08-19T02:43:41;28.27;;;19.63;;
17201;SDS011;8717;53.588;10.176;2022-08-19T02:46:12;30.03;;;20.00;;
17201;SDS011;8717;53.588;10.176;2022-08-19T02:48:42;29.07;;;19.17;;
17201;SDS011;8717;53.588;10.176;2022-08-19T02:51:14;31.30;;;20.33;;
17201;SDS011;8717;53.588;10.176;2022-08-19T02:53:42;30.73;;;20.17;;
17201;SDS011;8717;53.588;10.176;2022-08-19T02:56:09;30.10;;;19.20;;
17201;SDS011;8717;53.588;10.176;2022-08-19T02:58:36;29.50;;;19.97;;
17201;SDS011;8717;53.588;10.176;2022-08-19T03:01:02;29.60;;;19.60;;
17201;SDS011;8717;53.588;10.176;2022-08-19T03:03:29;29.33;;;20.30;;
17201;SDS011;8717;53.588;10.176;2022-08-19T03:06:03;28.17;;;19.40;;
17201;SDS011;8717;53.588;10.176;2022-08-19T03:08:32;30.37;;;19.73;;
17201;SDS011;8717;53.588;10.176;2022-08-19T03:10:59;31.30;;;19.20;;
17201;SDS011;8717;53.588;10.176;2022-08-19T03:13:29;30.03;;;20.03;;
17201;SDS011;8717;53.588;10.176;2022-08-19T03:15:56;26.97;;;18.87;;
17201;SDS011;8717;53.588;10.176;2022-08-19T03:18:22;28.67;;;19.13;;
17201;SDS011;8717;53.588;10.176;2022-08-19T03:20:50;28.27;;;19.70;;
17201;SDS011;8717;53.588;10.176;2022-08-19T03:23:19;30.13;;;20.60;;
17201;SDS011;8717;53.588;10.176;2022-08-19T03:25:48;32.13;;;21.60;;
17201;SDS011;8717;53.588;10.176;2022-08-19T03:28:16;37.77;;;21.83;;
17201;SDS011;8717;53.588;10.176;2022-08-19T03:30:54;36.27;;;21.53;;
17201;SDS011;8717;53.588;10.176;2022-08-19T03:33:22;40.40;;;23.43;;
17201;SDS011;8717;53.588;10.176;2022-08-19T03:35:58;38.40;;;23.60;;
17201;SDS011;8717;53.588;10.176;2022-08-19T03:38:26;34.47;;;22.13;;
17201;SDS011;8717;53.588;10.176;2022-08-19T03:40:54;35.03;;;21.67;;
17201;SDS011;8717;53.588;10.176;2022-08-19T03:43:21;39.03;;;21.33;;
17201;SDS011;8717;53.588;10.176;2022-08-19T03:45:47;36.80;;;22.93;;
17201;SDS011;8717;53.588;10.176;2022-08-19T03:48:16;34.13;;;21.13;;
17201;SDS011;8717;53.588;10.176;2022-08-19T03:50:42;37.17;;;23.27;;
17201;SDS011;8717;53.588;10.176;2022-08-19T03:53:09;39.33;;;22.60;;
17201;SDS011;8717;53.588;10.176;2022-08-19T03:55:38;36.50;;;22.17;;
17201;SDS011;8717;53.588;10.176;2022-08-19T03:58:07;29.47;;;19.73;;
17201;SDS011;8717;53.588;10.176;2022-08-19T04:00:36;31.20;;;19.57;;
17201;SDS011;8717;53.588;10.176;2022-08-19T04:03:03;33.30;;;21.73;;
17201;SDS011;8717;53.588;10.176;2022-08-19T04:05:30;32.00;;;20.87;;
17201;SDS011;8717;53.588;10.176;2022-08-19T04:07:56;28.67;;;19.83;;
17201;SDS011;8717;53.588;10.176;2022-08-19T04:10:24;30.53;;;19.90;;
17201;SDS011;8717;53.588;10.176;2022-08-19T04:12:50;30.40;;;19.60;;
17201;SDS011;8717;53.588;10.176;2022-08-19T04:15:18;34.33;;;19.07;;
17201;SDS011;8717;53.588;10.176;2022-08-19T04:17:46;30.70;;;19.73;;
17201;SDS011;8717;53.588;10.176;2022-08-19T04:20:12;28.33;;;18.57;;
17201;SDS011;8717;53.588;10.176;2022-08-19T04:22:39;26.93;;;18.13;;
17201;SDS011;8717;53.588;10.176;2022-08-19T04:25:06;27.47;;;19.07;;
17201;SDS011;8717;53.588;10.176;2022-08-19T04:27:33;29.33;;;19.00;;
17201;SDS011;8717;53.588;10.176;2022-08-19T04:30:02;24.87;;;18.67;;
17201;SDS011;8717;53.588;10.176;2022-08-19T04:32:31;27.27;;;19.20;;
17201;SDS011;8717;53.588;10.176;2022-08-19T04:34:58;26.63;;;19.90;;
17201;SDS011;8717;53.588;10.176;2022-08-19T04:37:25;29.80;;;18.53;;
17201;SDS011;8717;53.588;10.176;2022-08-19T04:39:52;27.63;;;19.00;;
17201;SDS011;8717;53.588;10.176;2022-08-19T04:42:36;25.00;;;17.63;;
17201;SDS011;8717;53.588;10.176;2022-08-19T04:45:07;26.67;;;18.40;;
17201;SDS011;8717;53.588;10.176;2022-08-19T04:47:37;27.80;;;19.40;;
17201;SDS011;8717;53.588;10.176;2022-08-19T04:50:05;24.40;;;18.97;;
17201;SDS011;8717;53.588;10.176;2022-08-19T04:52:32;28.77;;;18.10;;
17201;SDS011;8717;53.588;10.176;2022-08-19T04:54:59;27.60;;;19.10;;
17201;SDS011;8717;53.588;10.176;2022-08-19T04:57:26;32.60;;;20.90;;
17201;SDS011;8717;53.588;10.176;2022-08-19T04:59:53;30.87;;;19.87;;
17201;SDS011;8717;53.588;10.176;2022-08-19T05:02:20;34.70;;;21.27;;
17201;SDS011;8717;53.588;10.176;2022-08-19T05:04:49;31.33;;;20.87;;
17201;SDS011;8717;53.588;10.176;2022-08-19T05:07:16;31.53;;;21.30;;
17201;SDS011;8717;53.588;10.176;2022-08-19T05:09:42;34.13;;;20.90;;
17201;SDS011;8717;53.588;10.176;2022-08-19T05:12:09;32.37;;;21.17;;
17201;SDS011;8717;53.588;10.176;2022-08-19T05:14:35;29.33;;;19.67;;
17201;SDS011;8717;53.588;10.176;2022-08-19T05:17:02;34.07;;;21.63;;
17201;SDS011;8717;53.588;10.176;2022-08-19T05:19:29;27.83;;;20.83;;
17201;SDS011;8717;53.588;10.176;2022-08-19T05:22:15;31.60;;;20.50;;
17201;SDS011;8717;53.588;10.176;2022-08-19T05:25:09;27.60;;;19.23;;
17201;SDS011;8717;53.588;10.176;2022-08-19T05:27:38;32.03;;;19.07;;
17201;SDS011;8717;53.588;10.176;2022-08-19T05:30:05;28.93;;;18.77;;
17201;SDS011;8717;53.588;10.176;2022-08-19T05:32:35;28.27;;;20.37;;
17201;SDS011;8717;53.588;10.176;2022-08-19T05:35:05;30.37;;;19.97;;
17201;SDS011;8717;53.588;10.176;2022-08-19T05:37:36;30.97;;;20.70;;
17201;SDS011;8717;53.588;10.176;2022-08-19T05:40:05;42.20;;;23.00;;
17201;SDS011;8717;53.588;10.176;2022-08-19T05:42:32;31.83;;;20.00;;
17201;SDS011;8717;53.588;10.176;2022-08-19T05:45:00;35.70;;;20.57;;
17201;SDS011;8717;53.588;10.176;2022-08-19T05:47:26;33.63;;;20.63;;
17201;SDS011;8717;53.588;10.176;2022-08-19T05:49:55;34.43;;;20.50;;
17201;SDS011;8717;53.588;10.176;2022-08-19T05:52:22;34.77;;;20.20;;
17201;SDS011;8717;53.588;10.176;2022-08-19T05:54:50;32.63;;;21.30;;
17201;SDS011;8717;53.588;10.176;2022-08-19T05:57:19;26.73;;;18.93;;
17201;SDS011;8717;53.588;10.176;2022-08-19T05:59:48;28.93;;;18.53;;
17201;SDS011;8717;53.588;10.176;2022-08-19T06:02:16;32.40;;;20.30;;
17201;SDS011;8717;53.588;10.176;2022-08-19T06:04:42;30.60;;;18.80;;
17201;SDS011;8717;53.588;10.176;2022-08-19T06:07:09;27.93;;;18.87;;
17201;SDS011;8717;53.588;10.176;2022-08-19T06:09:38;30.50;;;19.03;;
17201;SDS011;8717;53.588;10.176;2022-08-19T06:12:06;35.43;;;20.17;;
17201;SDS011;8717;53.588;10.176;2022-08-19T06:14:34;31.43;;;20.27;;
17201;SDS011;8717;53.588;10.176;2022-08-19T06:17:02;27.87;;;18.50;;
17201;SDS011;8717;53.588;10.176;2022-08-19T06:19:30;26.67;;;18.00;;
17201;SDS011;8717;53.588;10.176;2022-08-19T06:21:58;26.00;;;17.40;;
17201;SDS011;8717;53.588;10.176;2022-08-19T06:24:27;25.60;;;18.03;;
17201;SDS011;8717;53.588;10.176;2022-08-19T06:26:55;26.97;;;17.87;;
17201;SDS011;8717;53.588;10.176;2022-08-19T06:29:25;25.90;;;17.70;;
17201;SDS011;8717;53.588;10.176;2022-08-19T06:31:54;27.77;;;18.90;;
17201;SDS011;8717;53.588;10.176;2022-08-19T06:34:22;28.10;;;18.03;;
17201;SDS011;8717;53.588;10.176;2022-08-19T06:36:53;24.50;;;17.93;;
17201;SDS011;8717;53.588;10.176;2022-08-19T06:39:21;27.20;;;19.10;;
17201;SDS011;8717;53.588;10.176;2022-08-19T06:41:50;30.87;;;19.97;;
17201;SDS011;8717;53.588;10.176;2022-08-19T06:44:19;28.93;;;19.93;;
17201;SDS011;8717;53.588;10.176;2022-08-19T06:46:51;30.40;;;19.20;;
17201;SDS011;8717;53.588;10.176;2022-08-19T06:49:19;26.90;;;19.17;;
17201;SDS011;8717;53.588;10.176;2022-08-19T06:51:46;30.10;;;20.77;;
17201;SDS011;8717;53.588;10.176;2022-08-19T06:54:14;26.60;;;18.90;;
17201;SDS011;8717;53.588;10.176;2022-08-19T06:56:43;30.13;;;19.63;;
17201;SDS011;8717;53.588;10.176;2022-08-19T06:59:11;30.53;;;18.97;;
17201;SDS011;8717;53.588;10.176;2022-08-19T07:01:41;29.13;;;19.70;;
17201;SDS011;8717;53.588;10.176;2022-08-19T07:04:12;27.07;;;18.53;;
17201;SDS011;8717;53.588;10.176;2022-08-19T07:06:40;26.47;;;18.47;;
17201;SDS011;8717;53.588;10.176;2022-08-19T07:09:08;32.37;;;19.67;;
17201;SDS011;8717;53.588;10.176;2022-08-19T07:11:35;29.17;;;19.60;;
17201;SDS011;8717;53.588;10.176;2022-08-19T07:14:02;29.77;;;19.53;;
17201;SDS011;8717;53.588;10.176;2022-08-19T07:16:31;31.07;;;19.20;;
17201;SDS011;8717;53.588;10.176;2022-08-19T07:18:58;30.37;;;19.20;;
17201;SDS011;8717;53.588;10.176;2022-08-19T07:21:26;26.97;;;18.73;;
17201;SDS011;8717;53.588;10.176;2022-08-19T07:23:54;29.03;;;19.57;;
17201;SDS011;8717;53.588;10.176;2022-08-19T07:26:23;30.03;;;18.50;;
17201;SDS011;8717;53.588;10.176;2022-08-19T07:28:52;29.40;;;19.07;;
17201;SDS011;8717;53.588;10.176;2022-08-19T07:31:20;27.60;;;18.23;;
17201;SDS011;8717;53.588;10.176;2022-08-19T07:33:49;28.90;;;17.87;;
17201;SDS011;8717;53.588;10.176;2022-08-19T07:36:18;24.07;;;17.47;;
17201;SDS011;8717;53.588;10.176;2022-08-19T07:38:49;25.20;;;17.30;;
17201;SDS011;8717;53.588;10.176;2022-08-19T07:41:19;26.33;;;17.77;;
17201;SDS011;8717;53.588;10.176;2022-08-19T07:43:47;25.63;;;17.80;;
17201;SDS011;8717;53.588;10.176;2022-08-19T07:46:15;24.70;;;17.43;;
17201;SDS011;8717;53.588;10.176;2022-08-19T07:48:46;21.47;;;16.17;;
17201;SDS011;8717;53.588;10.176;2022-08-19T07:51:15;23.00;;;16.73;;
17201;SDS011;8717;53.588;10.176;2022-08-19T07:53:43;29.10;;;19.33;;
17201;SDS011;8717;53.588;10.176;2022-08-19T07:56:12;29.30;;;18.37;;
17201;SDS011;8717;53.588;10.176;2022-08-19T07:58:41;28.67;;;17.63;;
17201;SDS011;8717;53.588;10.176;2022-08-19T08:01:10;27.10;;;18.30;;
17201;SDS011;8717;53.588;10.176;2022-08-19T08:03:39;25.40;;;17.17;;
17201;SDS011;8717;53.588;10.176;2022-08-19T08:06:23;27.80;;;18.83;;
17201;SDS011;8717;53.588;10.176;2022-08-19T08:09:08;27.90;;;17.50;;
17201;SDS011;8717;53.588;10.176;2022-08-19T08:11:43;27.33;;;19.27;;
17201;SDS011;8717;53.588;10.176;2022-08-19T08:14:14;26.60;;;18.90;;
17201;SDS011;8717;53.588;10.176;2022-08-19T08:16:43;30.23;;;19.20;;
17201;SDS011;8717;53.588;10.176;2022-08-19T08:19:10;31.33;;;19.57;;
17201;SDS011;8717;53.588;10.176;2022-08-19T08:21:40;26.20;;;17.73;;
17201;SDS011;8717;53.588;10.176;2022-08-19T08:24:07;30.13;;;19.13;;
17201;SDS011;8717;53.588;10.176;2022-08-19T08:26:34;29.10;;;18.95;;
17201;SDS011;8717;53.588;10.176;2022-08-19T08:29:02;30.83;;;18.57;;
17201;SDS011;8717;53.588;10.176;2022-08-19T08:31:29;27.13;;;18.95;;
17201;SDS011;8717;53.588;10.176;2022-08-19T08:33:59;32.30;;;19.63;;
17201;SDS011;8717;53.588;10.176;2022-08-19T08:36:25;29.20;;;18.90;;
17201;SDS011;8717;53.588;10.176;2022-08-19T08:38:52;31.57;;;21.00;;
17201;SDS011;8717;53.588;10.176;2022-08-19T08:41:22;32.57;;;19.60;;
17201;SDS011;8717;53.588;10.176;2022-08-19T08:43:54;29.52;;;18.88;;
17201;SDS011;8717;53.588;10.176;2022-08-19T08:46:27;29.60;;;18.23;;
17201;SDS011;8717;53.588;10.176;2022-08-19T08:48:58;29.83;;;20.27;;
17201;SDS011;8717;53.588;10.176;2022-08-19T08:51:31;27.10;;;18.35;;
17201;SDS011;8717;53.588;10.176;2022-08-19T08:54:00;32.42;;;21.02;;
17201;SDS011;8717;53.588;10.176;2022-08-19T08:56:28;33.75;;;21.10;;
17201;SDS011;8717;53.588;10.176;2022-08-19T08:58:59;32.13;;;20.23;;
17201;SDS011;8717;53.588;10.176;2022-08-19T09:01:34;31.20;;;19.73;;
17201;SDS011;8717;53.588;10.176;2022-08-19T09:04:04;28.00;;;19.00;;
17201;SDS011;8717;53.588;10.176;2022-08-19T09:06:33;26.40;;;18.17;;
17201;SDS011;8717;53.588;10.176;2022-08-19T09:09:05;28.97;;;17.10;;
17201;SDS011;8717;53.588;10.176;2022-08-19T09:11:44;28.07;;;18.97;;
17201;SDS011;8717;53.588;10.176;2022-08-19T09:14:23;24.47;;;17.37;;
17201;SDS011;8717;53.588;10.176;2022-08-19T09:17:01;26.25;;;18.00;;
17201;SDS011;8717;53.588;10.176;2022-08-19T09:19:28;26.93;;;17.57;;
17201;SDS011;8717;53.588;10.176;2022-08-19T09:21:57;30.92;;;19.88;;
17201;SDS011;8717;53.588;10.176;2022-08-19T09:24:25;28.07;;;18.13;;
17201;SDS011;8717;53.588;10.176;2022-08-19T09:26:52;25.93;;;17.97;;
17201;SDS011;8717;53.588;10.176;2022-08-19T09:29:19;27.90;;;17.17;;
17201;SDS011;8717;53.588;10.176;2022-08-19T09:31:46;26.10;;;17.20;;
17201;SDS011;8717;53.588;10.176;2022-08-19T09:34:14;25.83;;;16.77;;
17201;SDS011;8717;53.588;10.176;2022-08-19T09:36:41;26.15;;;17.30;;
17201;SDS011;8717;53.588;10.176;2022-08-19T09:39:07;25.40;;;16.42;;
17201;SDS011;8717;53.588;10.176;2022-08-19T09:41:34;26.15;;;16.98;;
17201;SDS011;8717;53.588;10.176;2022-08-19T09:44:01;26.08;;;17.30;;
17201;SDS011;8717;53.588;10.176;2022-08-19T09:46:28;25.50;;;17.17;;
17201;SDS011;8717;53.588;10.176;2022-08-19T09:48:57;26.13;;;18.17;;
17201;SDS011;8717;53.588;10.176;2022-08-19T09:51:27;28.60;;;16.87;;
17201;SDS011;8717;53.588;10.176;2022-08-19T09:53:54;22.57;;;16.47;;
17201;SDS011;8717;53.588;10.176;2022-08-19T09:56:24;27.08;;;17.67;;
17201;SDS011;8717;53.588;10.176;2022-08-19T09:58:51;24.20;;;16.50;;
17201;SDS011;8717;53.588;10.176;2022-08-19T10:01:19;22.70;;;16.60;;
17201;SDS011;8717;53.588;10.176;2022-08-19T10:03:50;24.73;;;16.93;;
17201;SDS011;8717;53.588;10.176;2022-08-19T10:06:18;27.10;;;17.40;;
17201;SDS011;8717;53.588;10.176;2022-08-19T10:08:47;32.03;;;18.70;;
17201;SDS011;8717;53.588;10.176;2022-08-19T10:11:14;24.53;;;17.90;;
17201;SDS011;8717;53.588;10.176;2022-08-19T10:13:42;27.37;;;18.90;;
17201;SDS011;8717;53.588;10.176;2022-08-19T10:16:11;25.33;;;17.13;;
17201;SDS011;8717;53.588;10.176;2022-08-19T10:18:40;26.53;;;17.80;;
17201;SDS011;8717;53.588;10.176;2022-08-19T10:21:11;25.60;;;17.17;;
17201;SDS011;8717;53.588;10.176;2022-08-19T10:23:42;25.42;;;17.65;;
17201;SDS011;8717;53.588;10.176;2022-08-19T10:26:13;26.35;;;18.15;;
17201;SDS011;8717;53.588;10.176;2022-08-19T10:28:41;26.15;;;17.85;;
17201;SDS011;8717;53.588;10.176;2022-08-19T10:31:10;27.60;;;18.57;;
17201;SDS011;8717;53.588;10.176;2022-08-19T10:33:39;30.03;;;18.67;;
17201;SDS011;8717;53.588;10.176;2022-08-19T10:36:08;25.75;;;18.05;;
17201;SDS011;8717;53.588;10.176;2022-08-19T10:38:36;27.05;;;18.38;;
17201;SDS011;8717;53.588;10.176;2022-08-19T10:41:07;27.93;;;18.17;;
17201;SDS011;8717;53.588;10.176;2022-08-19T10:43:38;24.33;;;18.67;;
17201;SDS011;8717;53.588;10.176;2022-08-19T10:46:06;23.38;;;16.58;;
17201;SDS011;8717;53.588;10.176;2022-08-19T10:48:34;27.73;;;18.42;;
17201;SDS011;8717;53.588;10.176;2022-08-19T10:51:02;27.90;;;17.03;;
17201;SDS011;8717;53.588;10.176;2022-08-19T10:53:47;20.55;;;15.07;;
17201;SDS011;8717;53.588;10.176;2022-08-19T10:56:14;21.77;;;15.87;;
17201;SDS011;8717;53.588;10.176;2022-08-19T10:59:00;24.88;;;17.80;;
17201;SDS011;8717;53.588;10.176;2022-08-19T11:01:28;26.95;;;16.45;;
17201;SDS011;8717;53.588;10.176;2022-08-19T11:03:59;21.95;;;15.73;;
17201;SDS011;8717;53.588;10.176;2022-08-19T11:06:30;22.75;;;15.07;;
17201;SDS011;8717;53.588;10.176;2022-08-19T11:09:00;24.75;;;16.88;;
17201;SDS011;8717;53.588;10.176;2022-08-19T11:11:27;18.90;;;15.00;;
17201;SDS011;8717;53.588;10.176;2022-08-19T11:13:54;19.75;;;14.75;;
17201;SDS011;8717;53.588;10.176;2022-08-19T11:16:23;24.65;;;15.75;;
17201;SDS011;8717;53.588;10.176;2022-08-19T11:18:57;22.70;;;15.25;;
17201;SDS011;8717;53.588;10.176;2022-08-19T11:21:29;21.48;;;16.52;;
17201;SDS011;8717;53.588;10.176;2022-08-19T11:23:57;21.13;;;15.88;;
17201;SDS011;8717;53.588;10.176;2022-08-19T11:26:28;23.48;;;15.68;;
17201;SDS011;8717;53.588;10.176;2022-08-19T11:28:56;23.58;;;16.80;;
17201;SDS011;8717;53.588;10.176;2022-08-19T11:31:25;20.35;;;16.10;;
17201;SDS011;8717;53.588;10.176;2022-08-19T11:33:55;19.45;;;15.70;;
17201;SDS011;8717;53.588;10.176;2022-08-19T11:36:22;22.05;;;16.10;;
17201;SDS011;8717;53.588;10.176;2022-08-19T11:38:49;23.33;;;15.65;;
17201;SDS011;8717;53.588;10.176;2022-08-19T11:41:16;20.83;;;15.77;;
17201;SDS011;8717;53.588;10.176;2022-08-19T11:43:46;20.25;;;15.65;;
17201;SDS011;8717;53.588;10.176;2022-08-19T11:46:14;21.55;;;15.73;;
17201;SDS011;8717;53.588;10.176;2022-08-19T11:48:43;22.23;;;15.40;;
17201;SDS011;8717;53.588;10.176;2022-08-19T11:51:12;24.40;;;15.75;;
17201;SDS011;8717;53.588;10.176;2022-08-19T11:53:44;19.42;;;14.38;;
17201;SDS011;8717;53.588;10.176;2022-08-19T11:56:11;21.02;;;14.35;;
17201;SDS011;8717;53.588;10.176;2022-08-19T11:58:38;24.80;;;15.90;;
17201;SDS011;8717;53.588;10.176;2022-08-19T12:01:07;19.98;;;15.18;;
17201;SDS011;8717;53.588;10.176;2022-08-19T12:03:36;20.17;;;15.15;;
17201;SDS011;8717;53.588;10.176;2022-08-19T12:06:07;21.15;;;14.45;;
17201;SDS011;8717;53.588;10.176;2022-08-19T12:08:36;19.42;;;13.90;;
17201;SDS011;8717;53.588;10.176;2022-08-19T12:11:03;20.85;;;15.77;;
17201;SDS011;8717;53.588;10.176;2022-08-19T12:13:30;22.58;;;15.52;;
17201;SDS011;8717;53.588;10.176;2022-08-19T12:15:57;22.63;;;14.50;;
17201;SDS011;8717;53.588;10.176;2022-08-19T12:18:24;19.13;;;13.98;;
17201;SDS011;8717;53.588;10.176;2022-08-19T12:20:51;17.65;;;13.27;;
17201;SDS011;8717;53.588;10.176;2022-08-19T12:23:22;19.95;;;15.35;;
17201;SDS011;8717;53.588;10.176;2022-08-19T12:25:49;20.63;;;14.18;;
17201;SDS011;8717;53.588;10.176;2022-08-19T12:28:17;16.45;;;13.77;;
17201;SDS011;8717;53.588;10.176;2022-08-19T12:30:45;19.38;;;14.00;;
17201;SDS011;8717;53.588;10.176;2022-08-19T12:33:12;18.80;;;13.98;;
17201;SDS011;8717;53.588;10.176;2022-08-19T12:35:40;16.48;;;12.45;;
17201;SDS011;8717;53.588;10.176;2022-08-19T12:38:07;17.08;;;13.10;;
17201;SDS011;8717;53.588;10.176;2022-08-19T12:40:37;15.88;;;13.50;;
17201;SDS011;8717;53.588;10.176;2022-08-19T12:43:04;13.55;;;11.48;;
17201;SDS011;8717;53.588;10.176;2022-08-19T12:45:33;14.85;;;11.75;;
17201;SDS011;8717;53.588;10.176;2022-08-19T12:47:59;15.02;;;11.77;;
17201;SDS011;8717;53.588;10.176;2022-08-19T12:50:26;16.15;;;13.25;;
17201;SDS011;8717;53.588;10.176;2022-08-19T12:52:53;14.23;;;12.52;;
17201;SDS011;8717;53.588;10.176;2022-08-19T12:55:20;14.23;;;12.20;;
17201;SDS011;8717;53.588;10.176;2022-08-19T12:57:48;13.90;;;12.25;;
17201;SDS011;8717;53.588;10.176;2022-08-19T13:00:17;15.20;;;12.43;;
17201;SDS011;8717;53.588;10.176;2022-08-19T13:02:47;14.07;;;12.55;;
17201;SDS011;8717;53.588;10.176;2022-08-19T13:05:18;16.50;;;12.30;;
17201;SDS011;8717;53.588;10.176;2022-08-19T13:07:50;13.75;;;10.85;;
17201;SDS011;8717;53.588;10.176;2022-08-19T13:10:20;12.40;;;10.45;;
17201;SDS011;8717;53.588;10.176;2022-08-19T13:12:49;13.65;;;10.55;;
17201;SDS011;8717;53.588;10.176;2022-08-19T13:15:18;11.73;;;10.40;;
17201;SDS011;8717;53.588;10.176;2022-08-19T13:17:49;11.35;;;9.40;;
17201;SDS011;8717;53.588;10.176;2022-08-19T13:20:17;11.85;;;10.65;;
17201;SDS011;8717;53.588;10.176;2022-08-19T13:22:45;14.25;;;10.57;;
17201;SDS011;8717;53.588;10.176;2022-08-19T13:25:15;13.07;;;11.20;;
17201;SDS011;8717;53.588;10.176;2022-08-19T13:27:44;15.43;;;12.55;;
17201;SDS011;8717;53.588;10.176;2022-08-19T13:30:14;12.30;;;10.15;;
17201;SDS011;8717;53.588;10.176;2022-08-19T13:32:59;13.95;;;10.75;;
17201;SDS011;8717;53.588;10.176;2022-08-19T13:35:39;13.25;;;11.50;;
17201;SDS011;8717;53.588;10.176;2022-08-19T13:38:07;13.93;;;11.25;;
17201;SDS011;8717;53.588;10.176;2022-08-19T13:40:35;13.88;;;11.38;;
17201;SDS011;8717;53.588;10.176;2022-08-19T13:43:03;12.50;;;10.57;;
17201;SDS011;8717;53.588;10.176;2022-08-19T13:45:32;12.65;;;10.68;;
17201;SDS011;8717;53.588;10.176;2022-08-19T13:48:00;14.80;;;10.35;;
17201;SDS011;8717;53.588;10.176;2022-08-19T13:50:33;13.05;;;11.38;;
17201;SDS011;8717;53.588;10.176;2022-08-19T13:53:01;12.68;;;11.27;;
17201;SDS011;8717;53.588;10.176;2022-08-19T13:55:29;12.45;;;11.15;;
17201;SDS011;8717;53.588;10.176;2022-08-19T13:57:58;11.20;;;9.95;;
17201;SDS011;8717;53.588;10.176;2022-08-19T14:00:30;10.10;;;9.07;;
17201;SDS011;8717;53.588;10.176;2022-08-19T14:02:59;11.35;;;9.95;;
17201;SDS011;8717;53.588;10.176;2022-08-19T14:05:27;11.00;;;9.85;;
17201;SDS011;8717;53.588;10.176;2022-08-19T14:07:56;10.32;;;9.23;;
17201;SDS011;8717;53.588;10.176;2022-08-19T14:10:24;13.60;;;10.55;;
17201;SDS011;8717;53.588;10.176;2022-08-19T14:12:53;11.20;;;10.05;;
17201;SDS011;8717;53.588;10.176;2022-08-19T14:15:20;11.18;;;9.30;;
17201;SDS011;8717;53.588;10.176;2022-08-19T14:17:49;11.15;;;9.77;;
17201;SDS011;8717;53.588;10.176;2022-08-19T14:20:17;12.18;;;10.05;;
17201;SDS011;8717;53.588;10.176;2022-08-19T14:22:44;11.50;;;9.82;;
17201;SDS011;8717;53.588;10.176;2022-08-19T14:25:13;10.55;;;9.40;;
17201;SDS011;8717;53.588;10.176;2022-08-19T14:27:41;9.88;;;8.88;;
17201;SDS011;8717;53.588;10.176;2022-08-19T14:30:10;10.73;;;9.20;;